sensor_id;sensor_type;location;lat;lon;timestamp;temperature;humidity
16441;DHT22;8330;-33.858;151.184;2023-08-21T00:01:24;18.10;99.90
16441;DHT22;8330;-33.858;151.184;2023-08-21T00:03:58;18.20;99.90
16441;DHT22;8330;-33.858;151.184;2023-08-21T00:06:28;18.30;99.90
16441;DHT22;8330;-33.858;151.184;2023-08-21T00:09:00;18.50;99.90
16441;DHT22;8330;-33.858;151.184;2023-08-21T00:11:32;18.50;99.90
16441;DHT22;8330;-33.858;151.184;2023-08-21T00:14:02;18.60;99.90
16441;DHT22;8330;-33.858;151.184;2023-08-21T00:16:34;18.60;99.90
16441;DHT22;8330;-33.858;151.184;2023-08-21T00:19:06;18.60;99.90
16441;DHT22;8330;-33.858;151.184;2023-08-21T00:21:37;18.70;99.90
16441;DHT22;8330;-33.858;151.184;2023-08-21T00:24:09;18.70;99.90
16441;DHT22;8330;-33.858;151.184;2023-08-21T00:26:40;18.80;99.90
16441;DHT22;8330;-33.858;151.184;2023-08-21T00:29:11;19.00;99.90
16441;DHT22;8330;-33.858;151.184;2023-08-21T00:31:42;19.00;99.90
16441;DHT22;8330;-33.858;151.184;2023-08-21T00:34:15;19.00;99.90
16441;DHT22;8330;-33.858;151.184;2023-08-21T00:36:46;19.10;99.90
16441;DHT22;8330;-33.858;151.184;2023-08-21T00:39:17;19.20;99.90
16441;DHT22;8330;-33.858;151.184;2023-08-21T00:41:47;19.20;99.90
16441;DHT22;8330;-33.858;151.184;2023-08-21T00:44:18;19.20;99.90
16441;DHT22;8330;-33.858;151.184;2023-08-21T00:46:50;19.20;99.90
16441;DHT22;8330;-33.858;151.184;2023-08-21T00:49:22;19.40;99.90
16441;DHT22;8330;-33.858;151.184;2023-08-21T00:51:54;19.20;99.90
16441;DHT22;8330;-33.858;151.184;2023-08-21T00:54:25;19.30;99.90
16441;DHT22;8330;-33.858;151.184;2023-08-21T00:56:57;19.40;99.90
16441;DHT22;8330;-33.858;151.184;2023-08-21T00:59:27;19.50;99.90
16441;DHT22;8330;-33.858;151.184;2023-08-21T01:01:59;19.60;99.90
16441;DHT22;8330;-33.858;151.184;2023-08-21T01:04:34;19.60;99.90
16441;DHT22;8330;-33.858;151.184;2023-08-21T01:07:05;19.70;99.90
16441;DHT22;8330;-33.858;151.184;2023-08-21T01:09:43;19.70;99.90
16441;DHT22;8330;-33.858;151.184;2023-08-21T01:12:22;19.70;99.90
16441;DHT22;8330;-33.858;151.184;2023-08-21T01:14:59;19.70;99.90
16441;DHT22;8330;-33.858;151.184;2023-08-21T01:17:31;19.60;99.90
16441;DHT22;8330;-33.858;151.184;2023-08-21T01:20:08;19.70;99.90
16441;DHT22;8330;-33.858;151.184;2023-08-21T01:22:40;19.80;99.90
16441;DHT22;8330;-33.858;151.184;2023-08-21T01:25:16;19.90;99.90
16441;DHT22;8330;-33.858;151.184;2023-08-21T01:27:49;19.90;99.90
16441;DHT22;8330;-33.858;151.184;2023-08-21T01:30:21;20.00;99.90
16441;DHT22;8330;-33.858;151.184;2023-08-21T01:33:01;19.90;99.90
16441;DHT22;8330;-33.858;151.184;2023-08-21T01:35:34;19.90;99.90
16441;DHT22;8330;-33.858;151.184;2023-08-21T01:38:08;20.10;99.90
16441;DHT22;8330;-33.858;151.184;2023-08-21T01:40:43;20.10;99.90
16441;DHT22;8330;-33.858;151.184;2023-08-21T01:43:14;20.00;99.90
16441;DHT22;8330;-33.858;151.184;2023-08-21T01:45:48;20.10;99.90
16441;DHT22;8330;-33.858;151.184;2023-08-21T01:48:19;20.10;99.90
16441;DHT22;8330;-33.858;151.184;2023-08-21T01:50:50;20.20;99.90
16441;DHT22;8330;-33.858;151.184;2023-08-21T01:53:21;20.30;99.90
16441;DHT22;8330;-33.858;151.184;2023-08-21T01:55:55;20.30;99.90
16441;DHT22;8330;-33.858;151.184;2023-08-21T01:58:26;20.50;99.90
16441;DHT22;8330;-33.858;151.184;2023-08-21T02:00:57;20.60;99.00
16441;DHT22;8330;-33.858;151.184;2023-08-21T02:03:28;20.50;98.20
16441;DHT22;8330;-33.858;151.184;2023-08-21T02:05:59;20.50;98.00
16441;DHT22;8330;-33.858;151.184;2023-08-21T02:08:33;20.70;98.90
16441;DHT22;8330;-33.858;151.184;2023-08-21T02:11:07;20.80;97.30
16441;DHT22;8330;-33.858;151.184;2023-08-21T02:13:38;20.90;97.20
16441;DHT22;8330;-33.858;151.184;2023-08-21T02:16:21;21.00;96.00
16441;DHT22;8330;-33.858;151.184;2023-08-21T02:18:52;21.10;96.40
16441;DHT22;8330;-33.858;151.184;2023-08-21T02:21:25;21.10;96.40
16441;DHT22;8330;-33.858;151.184;2023-08-21T02:23:55;21.20;94.70
16441;DHT22;8330;-33.858;151.184;2023-08-21T02:26:28;21.20;95.40
16441;DHT22;8330;-33.858;151.184;2023-08-21T02:29:03;21.40;95.20
16441;DHT22;8330;-33.858;151.184;2023-08-21T02:31:34;21.50;94.80
16441;DHT22;8330;-33.858;151.184;2023-08-21T02:34:05;21.50;94.30
16441;DHT22;8330;-33.858;151.184;2023-08-21T02:36:36;21.50;94.00
16441;DHT22;8330;-33.858;151.184;2023-08-21T02:39:06;21.50;92.90
16441;DHT22;8330;-33.858;151.184;2023-08-21T02:41:39;21.50;93.50
16441;DHT22;8330;-33.858;151.184;2023-08-21T02:44:10;21.50;93.00
16441;DHT22;8330;-33.858;151.184;2023-08-21T02:46:41;21.50;92.70
16441;DHT22;8330;-33.858;151.184;2023-08-21T02:49:13;21.50;92.60
16441;DHT22;8330;-33.858;151.184;2023-08-21T02:51:44;21.60;93.20
16441;DHT22;8330;-33.858;151.184;2023-08-21T02:54:16;21.70;91.90
16441;DHT22;8330;-33.858;151.184;2023-08-21T02:56:49;21.70;92.60
16441;DHT22;8330;-33.858;151.184;2023-08-21T02:59:20;21.80;92.10
16441;DHT22;8330;-33.858;151.184;2023-08-21T03:01:51;21.90;92.10
16441;DHT22;8330;-33.858;151.184;2023-08-21T03:04:24;22.00;91.60
16441;DHT22;8330;-33.858;151.184;2023-08-21T03:06:55;22.10;91.60
16441;DHT22;8330;-33.858;151.184;2023-08-21T03:09:25;22.00;90.60
16441;DHT22;8330;-33.858;151.184;2023-08-21T03:11:59;22.10;91.00
16441;DHT22;8330;-33.858;151.184;2023-08-21T03:14:32;22.10;91.20
16441;DHT22;8330;-33.858;151.184;2023-08-21T03:17:02;22.00;90.00
16441;DHT22;8330;-33.858;151.184;2023-08-21T03:19:33;21.90;90.10
16441;DHT22;8330;-33.858;151.184;2023-08-21T03:22:07;21.70;90.70
16441;DHT22;8330;-33.858;151.184;2023-08-21T03:24:39;21.90;90.80
16441;DHT22;8330;-33.858;151.184;2023-08-21T03:27:14;21.80;90.70
16441;DHT22;8330;-33.858;151.184;2023-08-21T03:29:45;21.70;92.70
16441;DHT22;8330;-33.858;151.184;2023-08-21T03:32:17;21.60;94.50
16441;DHT22;8330;-33.858;151.184;2023-08-21T03:34:47;21.60;95.90
16441;DHT22;8330;-33.858;151.184;2023-08-21T03:37:18;21.80;96.10
16441;DHT22;8330;-33.858;151.184;2023-08-21T03:39:49;21.70;97.20
16441;DHT22;8330;-33.858;151.184;2023-08-21T03:42:22;21.60;98.40
16441;DHT22;8330;-33.858;151.184;2023-08-21T03:44:53;21.50;98.30
16441;DHT22;8330;-33.858;151.184;2023-08-21T03:47:23;21.40;98.30
16441;DHT22;8330;-33.858;151.184;2023-08-21T03:49:54;21.30;98.00
16441;DHT22;8330;-33.858;151.184;2023-08-21T03:52:25;21.30;98.10
16441;DHT22;8330;-33.858;151.184;2023-08-21T03:54:56;21.30;98.40
16441;DHT22;8330;-33.858;151.184;2023-08-21T03:57:28;21.30;98.00
16441;DHT22;8330;-33.858;151.184;2023-08-21T03:59:59;21.40;98.20
16441;DHT22;8330;-33.858;151.184;2023-08-21T04:02:30;21.50;97.90
16441;DHT22;8330;-33.858;151.184;2023-08-21T04:05:01;21.50;98.40
16441;DHT22;8330;-33.858;151.184;2023-08-21T04:07:32;21.60;98.10
16441;DHT22;8330;-33.858;151.184;2023-08-21T04:10:03;21.60;97.30
16441;DHT22;8330;-33.858;151.184;2023-08-21T04:12:37;21.50;97.30
16441;DHT22;8330;-33.858;151.184;2023-08-21T04:15:09;21.50;97.70
16441;DHT22;8330;-33.858;151.184;2023-08-21T04:17:41;21.50;97.80
16441;DHT22;8330;-33.858;151.184;2023-08-21T04:20:12;21.50;97.90
16441;DHT22;8330;-33.858;151.184;2023-08-21T04:22:43;21.50;97.40
16441;DHT22;8330;-33.858;151.184;2023-08-21T04:25:15;21.30;97.70
16441;DHT22;8330;-33.858;151.184;2023-08-21T04:27:51;21.20;98.70
16441;DHT22;8330;-33.858;151.184;2023-08-21T04:30:21;21.20;99.10
16441;DHT22;8330;-33.858;151.184;2023-08-21T04:32:52;21.10;99.50
16441;DHT22;8330;-33.858;151.184;2023-08-21T04:35:23;21.00;99.90
16441;DHT22;8330;-33.858;151.184;2023-08-21T04:37:55;21.00;99.80
16441;DHT22;8330;-33.858;151.184;2023-08-21T04:40:27;20.90;99.90
16441;DHT22;8330;-33.858;151.184;2023-08-21T04:43:00;20.90;99.90
16441;DHT22;8330;-33.858;151.184;2023-08-21T04:45:32;20.80;99.90
16441;DHT22;8330;-33.858;151.184;2023-08-21T04:48:05;20.60;99.90
16441;DHT22;8330;-33.858;151.184;2023-08-21T04:50:36;20.60;99.90
16441;DHT22;8330;-33.858;151.184;2023-08-21T04:53:09;20.60;99.90
16441;DHT22;8330;-33.858;151.184;2023-08-21T04:55:40;20.60;99.90
16441;DHT22;8330;-33.858;151.184;2023-08-21T04:58:15;20.70;99.90
16441;DHT22;8330;-33.858;151.184;2023-08-21T05:00:47;20.70;99.90
16441;DHT22;8330;-33.858;151.184;2023-08-21T05:03:19;20.70;99.90
16441;DHT22;8330;-33.858;151.184;2023-08-21T05:05:57;20.70;99.90
16441;DHT22;8330;-33.858;151.184;2023-08-21T05:08:28;20.70;99.90
16441;DHT22;8330;-33.858;151.184;2023-08-21T05:10:59;20.70;99.90
16441;DHT22;8330;-33.858;151.184;2023-08-21T05:13:35;20.70;99.90
16441;DHT22;8330;-33.858;151.184;2023-08-21T05:16:11;20.70;99.90
16441;DHT22;8330;-33.858;151.184;2023-08-21T05:18:43;20.60;99.90
16441;DHT22;8330;-33.858;151.184;2023-08-21T05:21:14;20.60;99.90
16441;DHT22;8330;-33.858;151.184;2023-08-21T05:23:45;20.60;99.90
16441;DHT22;8330;-33.858;151.184;2023-08-21T05:26:16;20.60;99.90
16441;DHT22;8330;-33.858;151.184;2023-08-21T05:28:53;20.50;99.90
16441;DHT22;8330;-33.858;151.184;2023-08-21T05:31:23;20.60;99.90
16441;DHT22;8330;-33.858;151.184;2023-08-21T05:33:55;20.60;99.90
16441;DHT22;8330;-33.858;151.184;2023-08-21T05:36:29;20.60;99.90
16441;DHT22;8330;-33.858;151.184;2023-08-21T05:39:04;20.60;99.90
16441;DHT22;8330;-33.858;151.184;2023-08-21T05:41:36;20.60;99.90
16441;DHT22;8330;-33.858;151.184;2023-08-21T05:44:10;20.70;99.90
16441;DHT22;8330;-33.858;151.184;2023-08-21T05:46:43;20.70;99.90
16441;DHT22;8330;-33.858;151.184;2023-08-21T05:49:16;20.60;99.90
16441;DHT22;8330;-33.858;151.184;2023-08-21T05:51:48;20.60;99.90
16441;DHT22;8330;-33.858;151.184;2023-08-21T05:54:21;20.60;99.90
16441;DHT22;8330;-33.858;151.184;2023-08-21T05:56:52;20.60;99.90
16441;DHT22;8330;-33.858;151.184;2023-08-21T05:59:42;20.60;99.90
16441;DHT22;8330;-33.858;151.184;2023-08-21T06:02:13;20.70;99.90
16441;DHT22;8330;-33.858;151.184;2023-08-21T06:04:51;20.80;99.90
16441;DHT22;8330;-33.858;151.184;2023-08-21T06:07:26;20.70;99.90
16441;DHT22;8330;-33.858;151.184;2023-08-21T06:09:57;20.70;99.90
16441;DHT22;8330;-33.858;151.184;2023-08-21T06:12:28;20.70;99.90
16441;DHT22;8330;-33.858;151.184;2023-08-21T06:15:02;20.80;99.90
16441;DHT22;8330;-33.858;151.184;2023-08-21T06:17:36;20.90;99.90
16441;DHT22;8330;-33.858;151.184;2023-08-21T06:20:07;21.00;99.90
16441;DHT22;8330;-33.858;151.184;2023-08-21T06:22:39;21.10;99.90
16441;DHT22;8330;-33.858;151.184;2023-08-21T06:25:10;21.30;99.90
16441;DHT22;8330;-33.858;151.184;2023-08-21T06:27:41;21.30;99.90
16441;DHT22;8330;-33.858;151.184;2023-08-21T06:30:15;21.30;99.90
16441;DHT22;8330;-33.858;151.184;2023-08-21T06:32:47;21.30;99.90
16441;DHT22;8330;-33.858;151.184;2023-08-21T06:35:18;21.30;99.90
16441;DHT22;8330;-33.858;151.184;2023-08-21T06:37:49;21.40;99.90
16441;DHT22;8330;-33.858;151.184;2023-08-21T06:40:25;21.30;99.90
16441;DHT22;8330;-33.858;151.184;2023-08-21T06:42:56;21.30;99.90
16441;DHT22;8330;-33.858;151.184;2023-08-21T06:45:29;21.30;99.90
16441;DHT22;8330;-33.858;151.184;2023-08-21T06:48:00;21.20;99.90
16441;DHT22;8330;-33.858;151.184;2023-08-21T06:50:31;21.30;99.90
16441;DHT22;8330;-33.858;151.184;2023-08-21T06:53:02;21.10;99.90
16441;DHT22;8330;-33.858;151.184;2023-08-21T06:55:36;20.80;99.90
16441;DHT22;8330;-33.858;151.184;2023-08-21T06:58:07;20.60;99.90
16441;DHT22;8330;-33.858;151.184;2023-08-21T07:00:40;20.40;99.90
16441;DHT22;8330;-33.858;151.184;2023-08-21T07:03:11;20.20;99.90
16441;DHT22;8330;-33.858;151.184;2023-08-21T07:05:45;20.20;99.90
16441;DHT22;8330;-33.858;151.184;2023-08-21T07:08:16;20.10;99.90
16441;DHT22;8330;-33.858;151.184;2023-08-21T07:10:47;20.00;99.90
16441;DHT22;8330;-33.858;151.184;2023-08-21T07:13:18;19.90;99.90
16441;DHT22;8330;-33.858;151.184;2023-08-21T07:15:53;19.70;99.90
16441;DHT22;8330;-33.858;151.184;2023-08-21T07:18:24;19.60;99.90
16441;DHT22;8330;-33.858;151.184;2023-08-21T07:20:56;19.50;99.90
16441;DHT22;8330;-33.858;151.184;2023-08-21T07:23:28;19.40;99.90
16441;DHT22;8330;-33.858;151.184;2023-08-21T07:25:59;19.30;99.90
16441;DHT22;8330;-33.858;151.184;2023-08-21T07:28:32;19.30;99.90
16441;DHT22;8330;-33.858;151.184;2023-08-21T07:31:08;19.20;99.90
16441;DHT22;8330;-33.858;151.184;2023-08-21T07:33:39;19.20;99.90
16441;DHT22;8330;-33.858;151.184;2023-08-21T07:36:09;19.10;99.90
16441;DHT22;8330;-33.858;151.184;2023-08-21T07:38:44;19.10;99.90
16441;DHT22;8330;-33.858;151.184;2023-08-21T07:41:15;19.00;99.90
16441;DHT22;8330;-33.858;151.184;2023-08-21T07:43:47;18.90;99.90
16441;DHT22;8330;-33.858;151.184;2023-08-21T07:46:20;18.90;99.90
16441;DHT22;8330;-33.858;151.184;2023-08-21T07:48:52;18.80;99.90
16441;DHT22;8330;-33.858;151.184;2023-08-21T07:51:23;18.70;99.90
16441;DHT22;8330;-33.858;151.184;2023-08-21T07:53:56;18.70;99.90
16441;DHT22;8330;-33.858;151.184;2023-08-21T07:56:27;18.70;99.90
16441;DHT22;8330;-33.858;151.184;2023-08-21T07:58:58;18.70;99.90
16441;DHT22;8330;-33.858;151.184;2023-08-21T08:01:31;18.60;99.90
16441;DHT22;8330;-33.858;151.184;2023-08-21T08:04:02;18.60;99.90
16441;DHT22;8330;-33.858;151.184;2023-08-21T08:06:33;18.70;99.90
16441;DHT22;8330;-33.858;151.184;2023-08-21T08:09:05;18.60;99.90
16441;DHT22;8330;-33.858;151.184;2023-08-21T08:11:36;18.50;99.90
16441;DHT22;8330;-33.858;151.184;2023-08-21T08:14:07;18.50;99.90
16441;DHT22;8330;-33.858;151.184;2023-08-21T08:16:40;18.40;99.90
16441;DHT22;8330;-33.858;151.184;2023-08-21T08:19:12;18.40;99.90
16441;DHT22;8330;-33.858;151.184;2023-08-21T08:21:43;18.40;99.90
16441;DHT22;8330;-33.858;151.184;2023-08-21T08:24:14;18.40;99.90
16441;DHT22;8330;-33.858;151.184;2023-08-21T08:26:44;18.30;99.90
16441;DHT22;8330;-33.858;151.184;2023-08-21T08:29:15;18.30;99.90
16441;DHT22;8330;-33.858;151.184;2023-08-21T08:31:48;18.20;99.90
16441;DHT22;8330;-33.858;151.184;2023-08-21T08:34:18;18.20;99.90
16441;DHT22;8330;-33.858;151.184;2023-08-21T08:36:50;18.30;99.90
16441;DHT22;8330;-33.858;151.184;2023-08-21T08:39:20;18.20;99.90
16441;DHT22;8330;-33.858;151.184;2023-08-21T08:41:56;18.20;99.90
16441;DHT22;8330;-33.858;151.184;2023-08-21T08:44:29;18.10;99.90
16441;DHT22;8330;-33.858;151.184;2023-08-21T08:47:12;18.10;99.90
16441;DHT22;8330;-33.858;151.184;2023-08-21T08:49:49;18.10;99.90
16441;DHT22;8330;-33.858;151.184;2023-08-21T08:52:28;18.10;99.90
16441;DHT22;8330;-33.858;151.184;2023-08-21T08:55:02;18.10;99.90
16441;DHT22;8330;-33.858;151.184;2023-08-21T08:57:37;18.10;99.90
16441;DHT22;8330;-33.858;151.184;2023-08-21T09:00:09;18.10;99.90
16441;DHT22;8330;-33.858;151.184;2023-08-21T09:02:42;18.00;99.90
16441;DHT22;8330;-33.858;151.184;2023-08-21T09:05:13;18.00;99.90
16441;DHT22;8330;-33.858;151.184;2023-08-21T09:07:44;18.00;99.90
16441;DHT22;8330;-33.858;151.184;2023-08-21T09:10:15;18.00;99.90
16441;DHT22;8330;-33.858;151.184;2023-08-21T09:12:47;17.90;99.90
16441;DHT22;8330;-33.858;151.184;2023-08-21T09:15:18;17.90;99.90
16441;DHT22;8330;-33.858;151.184;2023-08-21T09:17:56;17.90;99.90
16441;DHT22;8330;-33.858;151.184;2023-08-21T09:20:27;17.90;99.90
16441;DHT22;8330;-33.858;151.184;2023-08-21T09:23:06;17.90;99.90
16441;DHT22;8330;-33.858;151.184;2023-08-21T09:25:39;17.80;99.90
16441;DHT22;8330;-33.858;151.184;2023-08-21T09:28:11;17.80;99.90
16441;DHT22;8330;-33.858;151.184;2023-08-21T09:30:49;17.70;99.90
16441;DHT22;8330;-33.858;151.184;2023-08-21T09:33:25;17.70;99.90
16441;DHT22;8330;-33.858;151.184;2023-08-21T09:35:56;17.70;99.90
16441;DHT22;8330;-33.858;151.184;2023-08-21T09:38:27;17.70;99.90
16441;DHT22;8330;-33.858;151.184;2023-08-21T09:40:58;17.70;99.90
16441;DHT22;8330;-33.858;151.184;2023-08-21T09:43:30;17.70;99.90
16441;DHT22;8330;-33.858;151.184;2023-08-21T09:46:01;17.70;99.90
16441;DHT22;8330;-33.858;151.184;2023-08-21T09:48:35;17.60;99.90
16441;DHT22;8330;-33.858;151.184;2023-08-21T09:51:06;17.60;99.90
16441;DHT22;8330;-33.858;151.184;2023-08-21T09:53:38;17.60;99.90
16441;DHT22;8330;-33.858;151.184;2023-08-21T09:56:13;17.60;99.90
16441;DHT22;8330;-33.858;151.184;2023-08-21T09:58:44;17.60;99.90
16441;DHT22;8330;-33.858;151.184;2023-08-21T10:01:18;17.60;99.90
16441;DHT22;8330;-33.858;151.184;2023-08-21T10:03:55;17.50;99.90
16441;DHT22;8330;-33.858;151.184;2023-08-21T10:06:29;17.60;99.90
16441;DHT22;8330;-33.858;151.184;2023-08-21T10:09:00;17.50;99.90
16441;DHT22;8330;-33.858;151.184;2023-08-21T10:11:32;17.60;99.90
16441;DHT22;8330;-33.858;151.184;2023-08-21T10:14:03;17.50;99.90
16441;DHT22;8330;-33.858;151.184;2023-08-21T10:16:35;17.50;99.90
16441;DHT22;8330;-33.858;151.184;2023-08-21T10:19:12;17.60;99.90
16441;DHT22;8330;-33.858;151.184;2023-08-21T10:21:47;17.60;99.90
16441;DHT22;8330;-33.858;151.184;2023-08-21T10:24:34;17.60;99.90
16441;DHT22;8330;-33.858;151.184;2023-08-21T10:27:07;17.60;99.90
16441;DHT22;8330;-33.858;151.184;2023-08-21T10:29:40;17.50;99.90
16441;DHT22;8330;-33.858;151.184;2023-08-21T10:35:32;17.40;99.90
16441;DHT22;8330;-33.858;151.184;2023-08-21T10:38:12;17.50;99.90
16441;DHT22;8330;-33.858;151.184;2023-08-21T10:41:16;17.50;99.90
16441;DHT22;8330;-33.858;151.184;2023-08-21T10:43:56;17.60;99.90
16441;DHT22;8330;-33.858;151.184;2023-08-21T10:46:28;17.60;99.90
16441;DHT22;8330;-33.858;151.184;2023-08-21T10:49:21;17.60;99.90
16441;DHT22;8330;-33.858;151.184;2023-08-21T10:51:56;17.60;99.90
16441;DHT22;8330;-33.858;151.184;2023-08-21T10:54:27;17.60;99.90
16441;DHT22;8330;-33.858;151.184;2023-08-21T10:57:03;17.60;99.90
16441;DHT22;8330;-33.858;151.184;2023-08-21T10:59:34;17.60;99.90
16441;DHT22;8330;-33.858;151.184;2023-08-21T11:02:06;17.50;99.90
16441;DHT22;8330;-33.858;151.184;2023-08-21T11:04:44;17.60;99.90
16441;DHT22;8330;-33.858;151.184;2023-08-21T11:07:17;17.50;99.90
16441;DHT22;8330;-33.858;151.184;2023-08-21T11:09:48;17.60;99.90
16441;DHT22;8330;-33.858;151.184;2023-08-21T11:12:20;17.50;99.90
16441;DHT22;8330;-33.858;151.184;2023-08-21T11:14:53;17.60;99.90
16441;DHT22;8330;-33.858;151.184;2023-08-21T11:17:30;17.50;99.90
16441;DHT22;8330;-33.858;151.184;2023-08-21T11:20:04;17.50;99.90
16441;DHT22;8330;-33.858;151.184;2023-08-21T11:22:45;17.50;99.90
16441;DHT22;8330;-33.858;151.184;2023-08-21T11:25:17;17.50;99.90
16441;DHT22;8330;-33.858;151.184;2023-08-21T11:27:50;17.50;99.90
16441;DHT22;8330;-33.858;151.184;2023-08-21T11:30:26;17.50;99.90
16441;DHT22;8330;-33.858;151.184;2023-08-21T11:33:09;17.50;99.90
16441;DHT22;8330;-33.858;151.184;2023-08-21T11:35:43;17.50;99.90
16441;DHT22;8330;-33.858;151.184;2023-08-21T11:38:20;17.50;99.90
16441;DHT22;8330;-33.858;151.184;2023-08-21T11:40:55;17.50;99.90
16441;DHT22;8330;-33.858;151.184;2023-08-21T11:43:37;17.40;99.90
16441;DHT22;8330;-33.858;151.184;2023-08-21T11:46:11;17.40;99.90
16441;DHT22;8330;-33.858;151.184;2023-08-21T11:48:45;17.40;99.90
16441;DHT22;8330;-33.858;151.184;2023-08-21T11:51:16;17.40;99.90
16441;DHT22;8330;-33.858;151.184;2023-08-21T11:53:50;17.30;99.90
16441;DHT22;8330;-33.858;151.184;2023-08-21T11:56:22;17.30;99.90
16441;DHT22;8330;-33.858;151.184;2023-08-21T11:58:58;17.30;99.90
16441;DHT22;8330;-33.858;151.184;2023-08-21T12:01:34;17.20;99.90
16441;DHT22;8330;-33.858;151.184;2023-08-21T12:04:17;17.20;99.90
16441;DHT22;8330;-33.858;151.184;2023-08-21T12:06:52;17.20;99.90
16441;DHT22;8330;-33.858;151.184;2023-08-21T12:09:25;17.20;99.90
16441;DHT22;8330;-33.858;151.184;2023-08-21T12:11:56;17.20;99.90
16441;DHT22;8330;-33.858;151.184;2023-08-21T12:14:28;17.10;99.90
16441;DHT22;8330;-33.858;151.184;2023-08-21T12:16:59;17.10;99.90
16441;DHT22;8330;-33.858;151.184;2023-08-21T12:19:30;17.10;99.90
16441;DHT22;8330;-33.858;151.184;2023-08-21T12:22:01;17.00;99.90
16441;DHT22;8330;-33.858;151.184;2023-08-21T12:24:34;17.00;99.90
16441;DHT22;8330;-33.858;151.184;2023-08-21T12:27:08;17.00;99.90
16441;DHT22;8330;-33.858;151.184;2023-08-21T12:29:39;17.00;99.90
16441;DHT22;8330;-33.858;151.184;2023-08-21T12:32:10;17.00;99.90
16441;DHT22;8330;-33.858;151.184;2023-08-21T12:34:42;16.90;99.90
16441;DHT22;8330;-33.858;151.184;2023-08-21T12:37:13;16.90;99.90
16441;DHT22;8330;-33.858;151.184;2023-08-21T12:39:46;16.90;99.90
16441;DHT22;8330;-33.858;151.184;2023-08-21T12:42:16;17.00;99.90
16441;DHT22;8330;-33.858;151.184;2023-08-21T12:44:47;17.00;99.90
16441;DHT22;8330;-33.858;151.184;2023-08-21T12:47:18;16.90;99.90
16441;DHT22;8330;-33.858;151.184;2023-08-21T12:49:50;16.90;99.90
16441;DHT22;8330;-33.858;151.184;2023-08-21T12:52:20;16.90;99.90
16441;DHT22;8330;-33.858;151.184;2023-08-21T12:54:54;16.80;99.90
16441;DHT22;8330;-33.858;151.184;2023-08-21T12:57:25;16.90;99.90
16441;DHT22;8330;-33.858;151.184;2023-08-21T12:59:56;16.90;99.90
16441;DHT22;8330;-33.858;151.184;2023-08-21T13:02:28;16.80;99.90
16441;DHT22;8330;-33.858;151.184;2023-08-21T13:04:59;16.80;99.90
16441;DHT22;8330;-33.858;151.184;2023-08-21T13:07:32;16.80;99.90
16441;DHT22;8330;-33.858;151.184;2023-08-21T13:10:07;16.80;99.90
16441;DHT22;8330;-33.858;151.184;2023-08-21T13:12:39;16.80;99.90
16441;DHT22;8330;-33.858;151.184;2023-08-21T13:15:11;16.80;99.90
16441;DHT22;8330;-33.858;151.184;2023-08-21T13:17:43;16.80;99.90
16441;DHT22;8330;-33.858;151.184;2023-08-21T13:20:14;16.80;99.90
16441;DHT22;8330;-33.858;151.184;2023-08-21T13:22:49;16.70;99.90
16441;DHT22;8330;-33.858;151.184;2023-08-21T13:25:23;16.70;99.90
16441;DHT22;8330;-33.858;151.184;2023-08-21T13:27:55;16.70;99.90
16441;DHT22;8330;-33.858;151.184;2023-08-21T13:30:26;16.70;99.90
16441;DHT22;8330;-33.858;151.184;2023-08-21T13:32:57;16.70;99.90
16441;DHT22;8330;-33.858;151.184;2023-08-21T13:35:28;16.70;99.90
16441;DHT22;8330;-33.858;151.184;2023-08-21T13:37:59;16.70;99.90
16441;DHT22;8330;-33.858;151.184;2023-08-21T13:40:48;16.60;99.90
16441;DHT22;8330;-33.858;151.184;2023-08-21T13:43:19;16.60;99.90
16441;DHT22;8330;-33.858;151.184;2023-08-21T13:45:50;16.60;99.90
16441;DHT22;8330;-33.858;151.184;2023-08-21T13:48:22;16.60;99.90
16441;DHT22;8330;-33.858;151.184;2023-08-21T13:50:52;16.60;99.90
16441;DHT22;8330;-33.858;151.184;2023-08-21T13:53:23;16.60;99.90
16441;DHT22;8330;-33.858;151.184;2023-08-21T13:55:58;16.60;99.90
16441;DHT22;8330;-33.858;151.184;2023-08-21T13:58:29;16.50;99.90
16441;DHT22;8330;-33.858;151.184;2023-08-21T14:01:00;16.40;99.90
16441;DHT22;8330;-33.858;151.184;2023-08-21T14:03:31;16.40;99.90
16441;DHT22;8330;-33.858;151.184;2023-08-21T14:06:02;16.40;99.90
16441;DHT22;8330;-33.858;151.184;2023-08-21T14:08:33;16.50;99.90
16441;DHT22;8330;-33.858;151.184;2023-08-21T14:11:07;16.50;99.90
16441;DHT22;8330;-33.858;151.184;2023-08-21T14:13:38;16.40;99.90
16441;DHT22;8330;-33.858;151.184;2023-08-21T14:16:09;16.40;99.90
16441;DHT22;8330;-33.858;151.184;2023-08-21T14:18:40;16.40;99.90
16441;DHT22;8330;-33.858;151.184;2023-08-21T14:21:11;16.40;99.90
16441;DHT22;8330;-33.858;151.184;2023-08-21T14:23:42;16.40;99.90
16441;DHT22;8330;-33.858;151.184;2023-08-21T14:26:18;16.40;99.90
16441;DHT22;8330;-33.858;151.184;2023-08-21T14:28:52;16.40;99.90
16441;DHT22;8330;-33.858;151.184;2023-08-21T14:31:23;16.50;99.90
16441;DHT22;8330;-33.858;151.184;2023-08-21T14:33:54;16.50;99.90
16441;DHT22;8330;-33.858;151.184;2023-08-21T14:36:25;16.50;99.90
16441;DHT22;8330;-33.858;151.184;2023-08-21T14:38:56;16.40;99.90
16441;DHT22;8330;-33.858;151.184;2023-08-21T14:41:30;16.40;99.90
16441;DHT22;8330;-33.858;151.184;2023-08-21T14:44:01;16.30;99.90
16441;DHT22;8330;-33.858;151.184;2023-08-21T14:46:32;16.20;99.90
16441;DHT22;8330;-33.858;151.184;2023-08-21T14:49:03;16.20;99.90
16441;DHT22;8330;-33.858;151.184;2023-08-21T14:51:33;16.20;99.90
16441;DHT22;8330;-33.858;151.184;2023-08-21T14:54:06;16.10;99.90
16441;DHT22;8330;-33.858;151.184;2023-08-21T14:56:40;16.10;99.90
16441;DHT22;8330;-33.858;151.184;2023-08-21T14:59:11;16.10;99.90
16441;DHT22;8330;-33.858;151.184;2023-08-21T15:01:42;16.00;99.90
16441;DHT22;8330;-33.858;151.184;2023-08-21T15:04:13;15.90;99.90
16441;DHT22;8330;-33.858;151.184;2023-08-21T15:06:44;15.90;99.90
16441;DHT22;8330;-33.858;151.184;2023-08-21T15:09:16;15.90;99.90
16441;DHT22;8330;-33.858;151.184;2023-08-21T15:11:50;15.80;99.90
16441;DHT22;8330;-33.858;151.184;2023-08-21T15:14:21;15.80;99.90
16441;DHT22;8330;-33.858;151.184;2023-08-21T15:16:52;15.80;99.90
16441;DHT22;8330;-33.858;151.184;2023-08-21T15:19:23;15.70;99.90
16441;DHT22;8330;-33.858;151.184;2023-08-21T15:21:54;15.70;99.90
16441;DHT22;8330;-33.858;151.184;2023-08-21T15:24:25;15.70;99.90
16441;DHT22;8330;-33.858;151.184;2023-08-21T15:26:59;15.70;99.90
16441;DHT22;8330;-33.858;151.184;2023-08-21T15:29:31;15.70;99.90
16441;DHT22;8330;-33.858;151.184;2023-08-21T15:32:02;15.70;99.90
16441;DHT22;8330;-33.858;151.184;2023-08-21T15:34:34;15.70;99.90
16441;DHT22;8330;-33.858;151.184;2023-08-21T15:37:05;15.70;99.90
16441;DHT22;8330;-33.858;151.184;2023-08-21T15:39:36;15.70;99.90